Time;durP1;ratioP1;P1;durP2;ratioP2;P2;SDS_P1;SDS_P2;PMS_P1;PMS_P2;Temp;Humidity;BMP_temperature;BMP_pressure;BME280_temperature;BME280_humidity;BME280_pressure;Samples;Min_cycle;Max_cycle;Signal;HPM_P1;HPM_P2
2022/12/02 00:01:57;;;;;;;27.13;15.63;;;4.40;99.90;;;;;;5060075;28;20199;-68
2022/12/02 00:04:25;;;;;;;24.43;15.20;;;4.40;99.90;;;;;;5051922;28;20178;-67
2022/12/02 00:06:52;;;;;;;26.23;14.47;;;4.50;99.90;;;;;;5062207;28;20751;-67
2022/12/02 00:09:30;;;;;;;28.90;13.20;;;4.50;99.90;;;;;;5071859;28;20182;-67
2022/12/02 00:11:57;;;;;;;15.30;11.00;;;4.50;99.90;;;;;;5060503;28;21285;-67
2022/12/02 00:14:29;;;;;;;20.63;14.57;;;4.40;99.90;;;;;;5052101;28;20179;-66
2022/12/02 00:16:55;;;;;;;24.10;13.73;;;4.40;99.90;;;;;;5061671;28;20523;-67
2022/12/02 00:19:21;;;;;;;16.43;12.47;;;4.40;99.90;;;;;;5071685;28;20181;-66
2022/12/02 00:21:48;;;;;;;26.37;14.87;;;4.40;99.90;;;;;;5062958;28;20203;-66
2022/12/02 00:24:15;;;;;;;21.67;14.17;;;4.40;99.90;;;;;;5051847;28;20178;-67
2022/12/02 00:26:41;;;;;;;26.73;12.97;;;4.50;99.90;;;;;;5058244;28;20273;-67
2022/12/02 00:29:07;;;;;;;19.77;14.10;;;4.50;99.90;;;;;;5072146;28;20301;-68
2022/12/02 00:31:32;;;;;;;20.80;14.10;;;4.50;99.90;;;;;;5066057;28;20218;-67
2022/12/02 00:33:59;;;;;;;23.57;14.67;;;4.40;99.90;;;;;;5051542;28;20183;-67
2022/12/02 00:36:26;;;;;;;27.93;16.40;;;4.40;99.90;;;;;;5055269;28;20166;-67
2022/12/02 00:38:51;;;;;;;23.57;15.43;;;4.50;99.90;;;;;;5071847;28;20201;-68
2022/12/02 00:41:17;;;;;;;18.17;14.07;;;4.50;99.90;;;;;;5068938;28;20238;-67
2022/12/02 00:46:33;;;;;;;17.77;12.43;;;4.50;99.90;;;;;;5054256;28;20752;-67
2022/12/02 00:49:07;;;;;;;24.10;14.27;;;4.40;99.90;;;;;;5071374;28;20624;-67
2022/12/02 00:51:35;;;;;;;25.73;14.43;;;4.40;99.90;;;;;;5067973;28;20211;-67
2022/12/02 00:54:00;;;;;;;31.17;15.00;;;4.50;99.90;;;;;;5051263;28;20647;-67
2022/12/02 00:56:26;;;;;;;24.80;15.43;;;4.50;99.90;;;;;;5052797;28;20216;-67
2022/12/02 00:58:52;;;;;;;19.63;13.10;;;4.50;99.90;;;;;;5071490;28;20185;-66
2022/12/02 01:01:17;;;;;;;17.83;14.57;;;4.50;99.90;;;;;;5070737;28;20201;-67
2022/12/02 01:03:43;;;;;;;20.37;15.47;;;4.40;99.90;;;;;;5051296;28;20770;-66
2022/12/02 01:06:09;;;;;;;19.53;13.30;;;4.30;99.90;;;;;;5051405;28;20170;-67
2022/12/02 01:08:34;;;;;;;13.20;11.87;;;4.30;99.90;;;;;;5069316;28;20181;-67
2022/12/02 01:11:00;;;;;;;22.30;13.27;;;4.30;99.90;;;;;;5070606;28;20223;-67
2022/12/02 01:13:27;;;;;;;22.07;12.93;;;4.30;99.90;;;;;;5054848;28;20305;-67
2022/12/02 01:15:53;;;;;;;21.37;14.40;;;4.30;99.90;;;;;;5050978;28;20183;-67
2022/12/02 01:18:19;;;;;;;22.97;14.03;;;4.30;99.90;;;;;;5065878;28;20186;-67
2022/12/02 01:20:44;;;;;;;18.87;11.03;;;4.30;99.90;;;;;;5071567;28;20194;-67
2022/12/02 01:23:10;;;;;;;19.00;13.80;;;4.30;99.90;;;;;;5059253;28;20187;-68
2022/12/02 01:25:36;;;;;;;18.80;13.33;;;4.30;99.90;;;;;;5052101;28;20186;-67
2022/12/02 01:28:02;;;;;;;23.77;13.60;;;4.20;99.90;;;;;;5062965;28;20184;-67
2022/12/02 01:30:28;;;;;;;22.47;13.57;;;4.20;99.90;;;;;;5070638;28;20190;-66
2022/12/02 01:32:53;;;;;;;13.17;11.87;;;4.30;99.90;;;;;;5060371;28;20721;-67
2022/12/02 01:35:20;;;;;;;17.00;13.87;;;4.20;99.90;;;;;;5050997;28;20167;-66
2022/12/02 01:37:45;;;;;;;14.27;12.23;;;4.20;99.90;;;;;;5058901;28;20174;-66
2022/12/02 01:40:12;;;;;;;16.90;12.10;;;4.20;99.90;;;;;;5070162;28;20547;-66
2022/12/02 01:42:39;;;;;;;24.80;11.97;;;4.20;99.90;;;;;;5063917;28;20183;-67
2022/12/02 01:45:06;;;;;;;19.13;12.73;;;4.10;99.90;;;;;;5050786;28;20550;-67
2022/12/02 01:47:32;;;;;;;17.40;12.70;;;4.10;99.90;;;;;;5055754;28;20186;-67
2022/12/02 01:49:58;;;;;;;17.13;12.50;;;4.10;99.90;;;;;;5069789;28;20576;-66
2022/12/02 01:52:24;;;;;;;20.23;13.30;;;4.10;99.90;;;;;;5066869;28;20297;-66
2022/12/02 01:54:51;;;;;;;20.07;14.37;;;4.10;99.90;;;;;;5050582;28;20167;-67
2022/12/02 01:57:20;;;;;;;25.20;12.23;;;4.10;99.90;;;;;;5052586;28;20727;-67
2022/12/02 01:59:46;;;;;;;19.17;13.10;;;4.10;99.90;;;;;;5073132;28;20219;-68
2022/12/02 02:02:41;;;;;;;17.93;13.37;;;4.20;99.90;;;;;;5073543;28;20627;-67
2022/12/02 02:05:25;;;;;;;20.20;12.93;;;4.20;99.90;;;;;;5033319;28;20233;-66
2022/12/02 02:07:53;;;;;;;17.83;12.57;;;4.30;99.90;;;;;;5059788;28;20577;-66
2022/12/02 02:10:21;;;;;;;17.80;14.03;;;4.40;99.90;;;;;;5074699;28;20326;-66
2022/12/02 02:12:47;;;;;;;18.57;12.10;;;4.40;99.90;;;;;;5069225;28;20285;-67
2022/12/02 02:15:14;;;;;;;29.50;13.37;;;4.40;99.90;;;;;;5054423;28;20175;-67
2022/12/02 02:17:40;;;;;;;19.97;12.30;;;4.30;99.90;;;;;;5056900;28;20182;-67
2022/12/02 02:20:10;;;;;;;19.07;13.57;;;4.30;99.90;;;;;;5073957;28;20235;-67
2022/12/02 02:23:00;;;;;;;30.10;15.47;;;4.20;99.90;;;;;;5071983;28;20198;-67
2022/12/02 02:25:25;;;;;;;21.40;13.23;;;4.30;99.90;;;;;;5039531;28;20562;-67
2022/12/02 02:27:57;;;;;;;20.60;13.80;;;4.30;99.90;;;;;;5057185;28;20179;-67
2022/12/02 02:30:25;;;;;;;17.97;12.27;;;4.30;99.90;;;;;;5073564;28;20547;-67
2022/12/02 02:32:51;;;;;;;25.13;13.43;;;4.30;99.90;;;;;;5070514;28;20210;-66
2022/12/02 02:35:18;;;;;;;15.93;10.77;;;4.30;99.90;;;;;;5053863;28;20220;-66
2022/12/02 02:37:45;;;;;;;21.23;13.43;;;4.30;99.90;;;;;;5054817;28;20175;-66
2022/12/02 02:40:14;;;;;;;17.90;11.77;;;4.20;99.90;;;;;;5073393;28;20257;-67
2022/12/02 02:42:48;;;;;;;22.03;12.17;;;4.20;99.90;;;;;;5073231;28;20178;-66
2022/12/02 02:45:14;;;;;;;25.53;13.27;;;4.30;99.90;;;;;;5053769;28;20542;-66
2022/12/02 02:47:40;;;;;;;20.73;14.73;;;4.30;99.90;;;;;;5053785;28;20190;-67
2022/12/02 02:50:06;;;;;;;23.20;13.50;;;4.30;99.90;;;;;;5072746;28;20275;-66
2022/12/02 02:52:32;;;;;;;15.63;12.83;;;4.30;99.90;;;;;;5073518;28;20202;-67
2022/12/02 02:54:58;;;;;;;16.27;12.77;;;4.20;99.90;;;;;;5072636;28;20190;-67
2022/12/02 02:57:23;;;;;;;25.70;14.67;;;4.10;99.90;;;;;;5073660;28;20174;-67
2022/12/02 02:59:52;;;;;;;26.57;13.77;;;4.10;99.90;;;;;;5056574;28;20294;-67
2022/12/02 03:02:19;;;;;;;18.13;14.17;;;4.20;99.90;;;;;;5053614;28;20603;-67
2022/12/02 03:04:45;;;;;;;21.13;13.87;;;4.20;99.90;;;;;;5068524;28;20182;-67
2022/12/02 03:07:11;;;;;;;22.10;13.83;;;4.20;99.90;;;;;;5073593;28;20182;-66
2022/12/02 03:09:38;;;;;;;24.57;12.83;;;4.10;99.90;;;;;;5073856;28;20594;-67
2022/12/02 03:12:05;;;;;;;24.33;13.33;;;4.10;99.90;;;;;;5072832;28;20724;-67
2022/12/02 03:14:30;;;;;;;22.67;13.63;;;4.20;99.90;;;;;;5060249;28;20593;-66
2022/12/02 03:16:58;;;;;;;22.37;12.73;;;4.20;99.90;;;;;;5052824;28;20175;-67
2022/12/02 03:19:23;;;;;;;19.23;12.87;;;4.20;99.90;;;;;;5063442;28;20174;-67
2022/12/02 03:21:49;;;;;;;33.37;15.27;;;4.20;99.90;;;;;;5072749;28;20213;-67
2022/12/02 03:24:15;;;;;;;26.67;15.17;;;4.30;99.90;;;;;;5063660;28;20703;-67
2022/12/02 03:26:41;;;;;;;22.60;13.50;;;4.30;99.90;;;;;;5052725;28;20185;-67
2022/12/02 03:29:09;;;;;;;22.13;13.03;;;4.30;99.90;;;;;;5059645;28;20261;-67
2022/12/02 03:31:35;;;;;;;15.83;11.20;;;4.30;99.90;;;;;;5072563;28;20221;-67
2022/12/02 03:34:00;;;;;;;29.67;14.67;;;4.30;99.90;;;;;;5066420;28;20624;-67
2022/12/02 03:36:27;;;;;;;22.10;12.13;;;4.30;99.90;;;;;;5052629;28;20589;-67
2022/12/02 03:38:52;;;;;;;25.80;14.63;;;4.30;99.90;;;;;;5038908;28;20180;-67
2022/12/02 03:41:19;;;;;;;28.63;14.47;;;4.30;99.90;;;;;;5072376;28;20632;-67
2022/12/02 03:43:45;;;;;;;20.30;12.63;;;4.30;99.90;;;;;;5069354;28;20181;-67
2022/12/02 03:46:11;;;;;;;17.27;12.17;;;4.30;99.90;;;;;;5052496;28;20654;-66
2022/12/02 03:48:38;;;;;;;25.00;14.40;;;4.30;99.90;;;;;;5052606;28;20516;-66
2022/12/02 03:51:06;;;;;;;23.00;13.77;;;4.30;99.90;;;;;;5051971;28;20256;-67
2022/12/02 03:53:33;;;;;;;14.70;11.73;;;4.30;99.90;;;;;;5052454;28;20171;-66
2022/12/02 03:56:05;;;;;;;23.07;12.67;;;4.40;99.90;;;;;;5071137;28;20227;-66
2022/12/02 03:58:36;;;;;;;16.93;13.70;;;4.40;99.90;;;;;;5071374;28;20198;-67
2022/12/02 04:01:01;;;;;;;19.33;13.43;;;4.40;99.90;;;;;;5030887;28;20261;-66
2022/12/02 04:03:27;;;;;;;21.07;14.87;;;4.40;99.90;;;;;;5031276;28;20566;-67
2022/12/02 04:05:52;;;;;;;26.87;18.33;;;4.40;99.90;;;;;;5049729;28;20178;-67
2022/12/02 04:08:18;;;;;;;18.00;14.13;;;4.50;99.90;;;;;;5051542;28;20193;-67
2022/12/02 04:10:44;;;;;;;21.83;13.43;;;4.40;99.90;;;;;;5066968;28;20221;-67
2022/12/02 04:13:09;;;;;;;25.87;14.60;;;4.50;99.90;;;;;;5053538;28;20565;-67
2022/12/02 04:15:35;;;;;;;19.07;13.93;;;4.50;99.90;;;;;;5071663;28;20173;-67
2022/12/02 04:18:00;;;;;;;22.50;14.93;;;4.50;99.90;;;;;;5071708;28;20651;-67
2022/12/02 04:20:26;;;;;;;19.87;13.33;;;4.50;99.90;;;;;;5070969;28;20194;-67
2022/12/02 04:22:51;;;;;;;16.53;14.63;;;4.50;99.90;;;;;;5071238;28;20174;-67
2022/12/02 04:25:17;;;;;;;25.17;15.13;;;4.40;99.90;;;;;;5060503;28;20670;-67
2022/12/02 04:27:43;;;;;;;30.87;14.33;;;4.40;99.90;;;;;;5051788;28;20261;-67
2022/12/02 04:30:08;;;;;;;20.67;12.83;;;4.40;99.90;;;;;;5062909;28;20209;-67
2022/12/02 04:32:34;;;;;;;23.20;13.43;;;4.40;99.90;;;;;;5076056;28;20262;-67
2022/12/02 04:35:00;;;;;;;22.70;13.40;;;4.40;99.90;;;;;;5075460;28;20170;-67
2022/12/02 04:37:25;;;;;;;20.97;11.40;;;4.40;99.90;;;;;;5072317;28;20198;-67
2022/12/02 04:39:51;;;;;;;18.90;12.77;;;4.30;99.90;;;;;;5065997;28;20244;-67
2022/12/02 04:42:16;;;;;;;24.03;13.00;;;4.40;99.90;;;;;;5051741;28;20174;-67
2022/12/02 04:44:42;;;;;;;23.17;13.50;;;4.30;99.90;;;;;;5055181;28;20665;-67
2022/12/02 04:47:07;;;;;;;19.67;13.67;;;4.40;99.90;;;;;;5071827;28;20175;-67
2022/12/02 04:49:33;;;;;;;18.60;14.27;;;4.40;99.90;;;;;;5070833;28;20189;-67
2022/12/02 04:51:59;;;;;;;21.97;15.10;;;4.30;99.90;;;;;;5071299;28;20296;-67
2022/12/02 04:54:24;;;;;;;20.57;12.73;;;4.30;99.90;;;;;;5071182;28;20177;-67
2022/12/02 04:56:50;;;;;;;25.20;13.57;;;4.30;99.90;;;;;;5051227;28;20648;-67
2022/12/02 04:59:15;;;;;;;18.20;12.97;;;4.30;99.90;;;;;;5051356;28;20206;-67
2022/12/02 05:01:41;;;;;;;18.73;11.60;;;4.20;99.90;;;;;;5069738;28;20228;-67
2022/12/02 05:04:06;;;;;;;19.93;13.50;;;4.20;99.90;;;;;;5071269;28;20205;-67
2022/12/02 05:06:32;;;;;;;26.23;13.53;;;4.20;99.90;;;;;;5056754;28;20194;-67
2022/12/02 05:08:57;;;;;;;24.10;15.00;;;4.20;99.90;;;;;;5053976;28;20175;-67
2022/12/02 05:11:23;;;;;;;23.97;14.60;;;4.20;99.90;;;;;;5052829;28;20240;-67
2022/12/02 05:13:48;;;;;;;31.40;14.67;;;4.10;99.90;;;;;;5051392;28;20651;-67
2022/12/02 05:16:14;;;;;;;25.93;14.73;;;4.10;99.90;;;;;;5051354;28;20179;-67
2022/12/02 05:18:40;;;;;;;18.70;14.23;;;4.20;99.90;;;;;;5051113;28;20171;-67
2022/12/02 05:21:05;;;;;;;20.80;12.67;;;4.20;99.90;;;;;;5051301;28;20560;-67
2022/12/02 05:23:31;;;;;;;21.50;13.33;;;4.10;99.90;;;;;;5051330;28;20186;-67
2022/12/02 05:25:57;;;;;;;18.90;13.00;;;4.10;99.90;;;;;;5060604;28;20205;-67
2022/12/02 05:28:22;;;;;;;21.67;14.00;;;4.10;99.90;;;;;;5068566;28;20214;-67
2022/12/02 05:30:48;;;;;;;19.57;14.80;;;4.10;99.90;;;;;;5052724;28;20198;-67
2022/12/02 05:33:13;;;;;;;17.83;13.53;;;4.10;99.90;;;;;;5072196;28;20177;-67
2022/12/02 05:35:39;;;;;;;24.27;13.83;;;4.10;99.90;;;;;;5075096;28;20170;-67
2022/12/02 05:38:04;;;;;;;29.33;14.47;;;4.10;99.90;;;;;;5074975;28;20504;-67
2022/12/02 05:40:31;;;;;;;26.00;15.53;;;4.10;99.90;;;;;;5074857;28;20200;-67
2022/12/02 05:42:59;;;;;;;19.87;13.33;;;4.10;99.90;;;;;;5056661;28;20177;-67
2022/12/02 05:45:24;;;;;;;21.57;14.03;;;4.10;99.90;;;;;;5075032;28;20635;-67
2022/12/02 05:47:53;;;;;;;23.60;14.70;;;4.10;99.90;;;;;;5074782;28;20185;-67
2022/12/02 05:50:20;;;;;;;26.33;13.90;;;4.10;99.90;;;;;;5056494;28;20197;-67
2022/12/02 05:52:48;;;;;;;30.37;15.73;;;4.10;99.90;;;;;;5074468;28;20686;-67
2022/12/02 05:55:18;;;;;;;19.23;14.57;;;4.10;99.90;;;;;;5074690;28;20169;-67
2022/12/02 05:57:44;;;;;;;28.23;15.43;;;4.10;99.90;;;;;;5074715;28;20166;-67
2022/12/02 06:00:13;;;;;;;21.30;14.90;;;4.10;99.90;;;;;;5074237;28;20239;-67
2022/12/02 06:02:42;;;;;;;24.43;13.67;;;4.10;99.90;;;;;;5074302;28;20197;-67
2022/12/02 06:05:19;;;;;;;22.53;13.80;;;4.10;99.90;;;;;;5074471;28;20174;-67
2022/12/02 06:07:46;;;;;;;23.03;14.57;;;4.10;99.90;;;;;;5074570;28;20666;-67
2022/12/02 06:10:26;;;;;;;29.97;15.63;;;4.10;99.90;;;;;;5074016;28;20202;-67
2022/12/02 06:12:54;;;;;;;20.37;14.80;;;4.20;99.90;;;;;;5074102;28;20201;-67
2022/12/02 06:15:20;;;;;;;24.77;13.07;;;4.10;99.90;;;;;;5074720;28;20162;-67
2022/12/02 06:17:46;;;;;;;34.00;16.40;;;4.10;99.90;;;;;;5074254;28;20171;-67
2022/12/02 06:20:24;;;;;;;34.63;15.03;;;4.10;99.90;;;;;;5074115;28;20251;-67
2022/12/02 06:22:49;;;;;;;24.23;13.90;;;4.10;99.90;;;;;;5074353;28;20544;-67
2022/12/02 06:25:28;;;;;;;30.73;14.73;;;4.10;99.90;;;;;;5074092;28;20185;-67
2022/12/02 06:28:09;;;;;;;23.27;14.00;;;4.10;99.90;;;;;;5074110;28;20200;-67
2022/12/02 06:30:35;;;;;;;25.50;15.90;;;4.20;99.90;;;;;;5073918;28;20190;-67
2022/12/02 06:33:00;;;;;;;26.23;15.23;;;4.20;99.90;;;;;;5073915;28;20220;-67
2022/12/02 06:35:29;;;;;;;23.47;12.10;;;4.10;99.90;;;;;;5076015;28;20535;-67
2022/12/02 06:38:01;;;;;;;20.53;13.17;;;4.20;99.90;;;;;;5077311;28;20182;-67
2022/12/02 06:40:31;;;;;;;29.70;14.87;;;4.20;99.90;;;;;;5078382;28;20178;-67
2022/12/02 06:42:59;;;;;;;26.43;13.20;;;4.30;99.90;;;;;;5077035;28;20223;-67
2022/12/02 06:45:30;;;;;;;18.73;14.37;;;4.30;99.90;;;;;;5059345;28;20170;-67
2022/12/02 06:48:23;;;;;;;31.43;15.10;;;4.30;99.90;;;;;;5077133;28;20492;-67
2022/12/02 06:50:49;;;;;;;27.57;15.07;;;4.30;99.90;;;;;;5077508;28;20563;-67
2022/12/02 06:53:32;;;;;;;26.17;14.73;;;4.20;99.90;;;;;;5077403;28;20170;-67
2022/12/02 06:56:04;;;;;;;26.53;16.17;;;4.20;99.90;;;;;;5076855;28;20579;-67
2022/12/02 06:58:50;;;;;;;18.93;14.43;;;4.30;99.90;;;;;;5078175;28;20569;-67
2022/12/02 07:01:33;;;;;;;28.13;14.93;;;4.20;99.90;;;;;;5074669;28;20675;-67
2022/12/02 07:03:59;;;;;;;23.50;13.80;;;4.20;99.90;;;;;;5056633;28;20179;-67
2022/12/02 07:06:27;;;;;;;22.80;13.50;;;4.20;99.90;;;;;;5038703;28;20197;-67
2022/12/02 07:08:59;;;;;;;28.97;12.60;;;4.30;99.90;;;;;;5057318;28;20546;-67
2022/12/02 07:11:52;;;;;;;22.40;13.20;;;4.30;99.90;;;;;;5057650;28;20207;-67
2022/12/02 07:14:27;;;;;;;28.87;12.83;;;4.30;99.90;;;;;;5056474;28;20171;-67
2022/12/02 07:16:55;;;;;;;24.47;14.53;;;4.30;99.90;;;;;;5055795;28;20174;-67
2022/12/02 07:19:40;;;;;;;15.17;11.53;;;4.30;99.90;;;;;;5056591;28;20171;-67
2022/12/02 07:22:16;;;;;;;20.27;13.73;;;4.30;99.90;;;;;;5038468;28;20201;-67
2022/12/02 07:24:50;;;;;;;19.83;13.63;;;4.30;99.90;;;;;;5055903;28;20181;-67
2022/12/02 07:27:25;;;;;;;23.50;13.93;;;4.20;99.90;;;;;;5055978;28;20174;-67
2022/12/02 07:29:52;;;;;;;24.83;14.80;;;4.20;99.90;;;;;;5055904;28;20166;-67
2022/12/02 07:32:18;;;;;;;19.87;14.97;;;4.20;99.90;;;;;;5056613;28;20191;-67
2022/12/02 07:34:44;;;;;;;23.97;14.53;;;4.30;99.90;;;;;;5055829;28;20217;-67
2022/12/02 07:37:10;;;;;;;20.47;12.60;;;4.30;99.90;;;;;;5056470;28;20167;-67
2022/12/02 07:39:35;;;;;;;19.13;13.23;;;4.30;99.90;;;;;;5061767;28;20221;-67
2022/12/02 07:42:01;;;;;;;20.27;13.20;;;4.30;99.90;;;;;;5063971;28;20206;-67
2022/12/02 07:44:26;;;;;;;27.60;14.80;;;4.30;99.90;;;;;;5061721;28;20186;-67
2022/12/02 07:46:52;;;;;;;21.30;13.97;;;4.30;99.90;;;;;;5055265;28;20218;-67
2022/12/02 07:49:18;;;;;;;26.90;14.00;;;4.40;99.90;;;;;;5055715;28;20179;-67
2022/12/02 07:51:43;;;;;;;27.87;14.00;;;4.40;99.90;;;;;;5055161;28;20574;-67
2022/12/02 07:54:09;;;;;;;21.80;14.23;;;4.30;99.90;;;;;;5056247;28;20254;-67
2022/12/02 07:56:34;;;;;;;30.57;14.23;;;4.30;99.90;;;;;;5055315;28;20171;-67
2022/12/02 07:59:01;;;;;;;21.13;12.63;;;4.30;99.90;;;;;;5055215;28;20182;-67
2022/12/02 08:01:27;;;;;;;23.57;14.60;;;4.30;99.90;;;;;;5057709;28;20684;-67
2022/12/02 08:03:52;;;;;;;26.07;15.03;;;4.30;99.90;;;;;;5056343;28;20166;-67
2022/12/02 08:06:18;;;;;;;28.93;17.83;;;4.30;99.90;;;;;;5058352;28;20371;-67
2022/12/02 08:08:44;;;;;;;22.73;13.83;;;4.40;99.90;;;;;;5058789;28;20182;-67
2022/12/02 08:11:09;;;;;;;25.83;14.17;;;4.30;99.90;;;;;;5037437;28;20210;-67
2022/12/02 08:13:35;;;;;;;22.53;14.40;;;4.30;99.90;;;;;;5051817;28;20261;-68
2022/12/02 08:16:00;;;;;;;29.30;17.03;;;4.30;99.90;;;;;;5051496;28;20608;-66
2022/12/02 08:18:26;;;;;;;38.20;14.43;;;4.30;99.90;;;;;;5051845;28;20174;-67
2022/12/02 08:20:51;;;;;;;26.77;15.73;;;4.20;99.90;;;;;;5051193;28;20205;-67
2022/12/02 08:23:17;;;;;;;28.40;15.60;;;4.20;99.90;;;;;;5051599;28;20167;-67
2022/12/02 08:25:43;;;;;;;26.03;15.53;;;4.20;99.90;;;;;;5051473;28;20167;-68
2022/12/02 08:28:08;;;;;;;51.57;15.40;;;4.20;99.90;;;;;;5051693;28;20625;-67
2022/12/02 08:30:34;;;;;;;28.03;15.00;;;4.20;99.90;;;;;;5051353;28;20266;-67
2022/12/02 08:32:59;;;;;;;35.00;15.30;;;4.20;99.90;;;;;;5049182;28;20717;-67
2022/12/02 08:35:25;;;;;;;23.73;14.33;;;4.20;99.90;;;;;;5051586;28;20221;-67
2022/12/02 08:37:50;;;;;;;37.50;15.27;;;4.20;99.90;;;;;;5050761;28;20204;-66
2022/12/02 08:40:16;;;;;;;26.23;14.07;;;4.20;99.90;;;;;;5051157;28;20217;-67
2022/12/02 08:42:42;;;;;;;40.30;16.07;;;4.20;99.90;;;;;;5051268;28;20178;-67
2022/12/02 08:45:08;;;;;;;39.93;16.60;;;4.20;99.90;;;;;;5051590;28;20560;-67
2022/12/02 08:47:34;;;;;;;26.80;16.90;;;4.20;99.90;;;;;;5051500;28;20570;-67
2022/12/02 08:49:59;;;;;;;37.50;15.07;;;4.30;99.90;;;;;;5051016;28;20198;-67
2022/12/02 08:52:25;;;;;;;28.87;15.23;;;4.30;99.90;;;;;;5050720;28;20313;-67
2022/12/02 08:54:50;;;;;;;31.70;14.37;;;4.30;99.90;;;;;;5051272;28;20197;-67
2022/12/02 08:57:16;;;;;;;26.10;15.13;;;4.30;99.90;;;;;;5051153;28;20174;-67
2022/12/02 08:59:42;;;;;;;27.57;15.07;;;4.30;99.90;;;;;;5050851;28;20171;-66
2022/12/02 09:02:08;;;;;;;27.80;15.47;;;4.30;99.90;;;;;;5048822;28;20345;-67
2022/12/02 09:04:33;;;;;;;35.37;15.77;;;4.30;99.90;;;;;;5051119;28;20629;-67
2022/12/02 09:06:59;;;;;;;29.90;15.17;;;4.30;99.90;;;;;;5050932;28;20520;-67
2022/12/02 09:09:24;;;;;;;22.47;14.03;;;4.20;99.90;;;;;;5055158;28;20174;-67
2022/12/02 09:11:50;;;;;;;29.47;14.30;;;4.20;99.90;;;;;;5054898;28;20237;-67
2022/12/02 09:14:15;;;;;;;25.27;14.17;;;4.20;99.90;;;;;;5055302;28;20181;-67
2022/12/02 09:16:41;;;;;;;42.93;17.23;;;4.20;99.90;;;;;;5055122;28;20205;-67
2022/12/02 09:19:07;;;;;;;27.00;14.53;;;4.20;99.90;;;;;;5054787;28;20170;-67
2022/12/02 09:21:32;;;;;;;35.47;14.83;;;4.20;99.90;;;;;;5055005;28;20559;-66
2022/12/02 09:23:58;;;;;;;31.43;15.30;;;4.20;99.90;;;;;;5055030;28;20430;-66
2022/12/02 09:26:23;;;;;;;27.40;15.47;;;4.20;99.90;;;;;;5055089;28;20248;-67
2022/12/02 09:28:49;;;;;;;19.23;13.40;;;4.10;99.90;;;;;;5054929;28;20654;-67
2022/12/02 09:31:15;;;;;;;21.40;13.27;;;4.10;99.90;;;;;;5054693;28;20216;-66
2022/12/02 09:33:40;;;;;;;20.57;12.77;;;4.10;99.90;;;;;;5053272;28;20202;-67
2022/12/02 09:36:06;;;;;;;19.67;13.47;;;4.10;99.90;;;;;;5054871;28;20174;-67
2022/12/02 09:38:32;;;;;;;40.90;17.03;;;4.20;99.90;;;;;;5054868;28;20167;-67
2022/12/02 09:40:58;;;;;;;27.00;14.00;;;4.10;99.90;;;;;;5053571;28;20195;-67
2022/12/02 09:43:25;;;;;;;21.37;13.73;;;4.10;99.90;;;;;;5054740;28;20232;-67
2022/12/02 09:45:51;;;;;;;20.37;13.53;;;4.20;99.90;;;;;;5054647;28;20296;-67
2022/12/02 09:48:16;;;;;;;18.87;14.57;;;4.10;99.90;;;;;;5055055;28;20183;-67
2022/12/02 09:50:42;;;;;;;27.50;15.10;;;4.10;99.90;;;;;;5054269;28;20214;-67
2022/12/02 09:53:12;;;;;;;26.33;15.60;;;4.10;99.90;;;;;;5054322;28;20260;-66
2022/12/02 09:55:37;;;;;;;30.40;15.40;;;4.20;99.90;;;;;;5036503;28;20171;-67
2022/12/02 09:58:20;;;;;;;25.73;13.27;;;4.20;99.90;;;;;;5054275;28;20694;-67
2022/12/02 10:00:49;;;;;;;36.13;15.60;;;4.30;99.90;;;;;;5053759;28;20217;-68
2022/12/02 10:03:16;;;;;;;27.73;15.07;;;4.30;99.90;;;;;;5054490;28;20217;-67
2022/12/02 10:05:42;;;;;;;21.90;12.77;;;4.30;99.90;;;;;;5054149;28;20266;-67
2022/12/02 10:08:20;;;;;;;24.23;13.43;;;4.30;99.90;;;;;;5054482;28;20186;-68
2022/12/02 10:10:46;;;;;;;19.87;14.03;;;4.30;99.90;;;;;;5053473;28;20210;-67
2022/12/02 10:13:14;;;;;;;26.60;14.67;;;4.20;99.90;;;;;;5036433;28;20604;-66
2022/12/02 10:15:40;;;;;;;28.13;14.43;;;4.20;99.90;;;;;;5054135;28;20182;-67
2022/12/02 10:18:20;;;;;;;30.33;16.73;;;4.20;99.90;;;;;;5054113;28;20186;-67
2022/12/02 10:20:46;;;;;;;26.07;13.17;;;4.20;99.90;;;;;;5052767;28;20197;-67
2022/12/02 10:23:23;;;;;;;24.07;13.93;;;4.20;99.90;;;;;;5054026;28;20438;-66
2022/12/02 10:25:57;;;;;;;27.17;13.73;;;4.20;99.90;;;;;;5035805;28;20193;-67
2022/12/02 10:28:29;;;;;;;25.23;15.63;;;4.20;99.90;;;;;;5054021;28;20177;-68
2022/12/02 10:31:00;;;;;;;22.93;12.93;;;4.20;99.90;;;;;;5053248;28;20610;-68
2022/12/02 10:33:28;;;;;;;24.83;14.57;;;4.20;99.90;;;;;;5053840;28;20623;-67
2022/12/02 10:35:57;;;;;;;22.90;15.83;;;4.30;99.90;;;;;;5053580;28;20171;-66
2022/12/02 10:38:43;;;;;;;33.50;14.37;;;4.30;99.90;;;;;;5053855;28;20167;-67
2022/12/02 10:41:24;;;;;;;29.37;14.73;;;4.30;99.90;;;;;;5052641;28;20205;-67
2022/12/02 10:43:52;;;;;;;29.50;15.90;;;4.30;99.90;;;;;;5053481;28;20182;-67
2022/12/02 10:46:22;;;;;;;18.80;13.93;;;4.30;99.90;;;;;;5054237;28;20183;-67
2022/12/02 10:48:48;;;;;;;29.03;14.67;;;4.30;99.90;;;;;;5055217;28;20647;-68
2022/12/02 10:51:19;;;;;;;27.00;13.73;;;4.30;99.90;;;;;;5054873;28;20203;-67
2022/12/02 10:53:51;;;;;;;30.03;16.33;;;4.30;99.90;;;;;;5053637;28;20544;-67
2022/12/02 10:56:19;;;;;;;35.17;15.00;;;4.40;99.90;;;;;;5053500;28;20179;-67
2022/12/02 10:58:46;;;;;;;21.90;14.97;;;4.50;99.90;;;;;;5053190;28;20171;-67
2022/12/02 11:01:12;;;;;;;17.90;12.97;;;4.50;99.90;;;;;;5052988;28;20664;-67
2022/12/02 11:03:39;;;;;;;26.27;16.20;;;4.50;99.90;;;;;;5053205;28;20213;-67
2022/12/02 11:06:12;;;;;;;20.33;14.07;;;4.40;99.90;;;;;;5053141;28;20206;-67
2022/12/02 11:08:40;;;;;;;26.43;13.90;;;4.40;99.90;;;;;;5053056;28;20179;-67
2022/12/02 11:11:23;;;;;;;17.97;14.00;;;4.40;99.90;;;;;;5052739;28;20218;-67
2022/12/02 11:13:55;;;;;;;38.40;16.93;;;4.30;99.90;;;;;;5052977;28;20257;-67
2022/12/02 11:16:26;;;;;;;29.67;14.93;;;4.30;99.90;;;;;;5050929;28;20178;-67
2022/12/02 11:18:57;;;;;;;31.20;16.43;;;4.30;99.90;;;;;;5052658;28;20249;-67
2022/12/02 11:21:28;;;;;;;24.47;13.27;;;4.30;99.90;;;;;;5052432;28;20202;-67
2022/12/02 11:24:22;;;;;;;27.93;15.47;;;4.30;99.90;;;;;;5052343;28;20652;-67
2022/12/02 11:27:02;;;;;;;23.40;14.90;;;4.30;99.90;;;;;;5032463;28;20175;-66
2022/12/02 11:29:41;;;;;;;18.43;13.57;;;4.30;99.90;;;;;;5039799;28;20179;-67
2022/12/02 11:32:24;;;;;;;16.77;13.27;;;4.30;99.90;;;;;;5051240;28;20210;-67
2022/12/02 11:34:55;;;;;;;20.67;11.87;;;4.30;99.90;;;;;;5051779;28;20179;-67
2022/12/02 11:40:10;;;;;;;21.37;14.83;;;4.30;99.90;;;;;;5051353;28;20170;-66
2022/12/02 11:42:40;;;;;;;22.73;14.30;;;4.30;99.90;;;;;;5052414;28;20174;-66
2022/12/02 11:45:15;;;;;;;21.97;14.73;;;4.30;99.90;;;;;;5051606;28;20183;-68
2022/12/02 11:47:51;;;;;;;26.40;13.90;;;4.30;99.90;;;;;;5052198;28;20582;-67
2022/12/02 11:50:20;;;;;;;19.10;12.83;;;4.30;99.90;;;;;;5051874;28;20229;-66
2022/12/02 11:52:55;;;;;;;16.37;14.63;;;4.30;99.90;;;;;;5052063;28;20695;-67
2022/12/02 11:55:38;;;;;;;22.07;14.77;;;4.30;99.90;;;;;;5051464;28;20675;-67
2022/12/02 11:58:18;;;;;;;16.83;14.53;;;4.40;99.90;;;;;;5051794;28;20175;-67
2022/12/02 12:01:17;;;;;;;20.90;13.80;;;4.50;99.90;;;;;;5051700;28;20221;-67
2022/12/02 12:03:47;;;;;;;20.63;11.73;;;4.60;99.90;;;;;;5051750;28;20201;-67
2022/12/02 12:06:14;;;;;;;15.23;13.63;;;4.70;99.90;;;;;;5051429;28;20193;-68
2022/12/02 12:08:47;;;;;;;19.60;12.33;;;4.70;99.90;;;;;;5051378;28;20183;-68
2022/12/02 12:11:20;;;;;;;22.60;14.20;;;4.70;99.90;;;;;;5051258;28;20224;-67
2022/12/02 12:14:11;;;;;;;18.03;12.27;;;4.70;99.90;;;;;;5050078;28;20187;-67
2022/12/02 12:16:47;;;;;;;22.87;13.47;;;4.70;99.90;;;;;;5051865;28;20171;-66
2022/12/02 12:19:14;;;;;;;20.50;12.70;;;4.80;99.90;;;;;;5051521;28;20171;-67
2022/12/02 12:21:51;;;;;;;19.73;13.13;;;4.80;99.90;;;;;;5051573;28;20210;-67
2022/12/02 12:24:21;;;;;;;19.93;12.43;;;4.80;99.90;;;;;;5051921;28;20632;-67
2022/12/02 12:27:08;;;;;;;20.30;12.77;;;4.80;99.90;;;;;;5051696;28;20174;-67
2022/12/02 12:29:35;;;;;;;20.43;13.33;;;4.90;99.90;;;;;;5051696;28;20232;-67
2022/12/02 12:32:01;;;;;;;14.83;13.30;;;5.00;99.90;;;;;;5051343;28;20216;-67
2022/12/02 12:34:29;;;;;;;19.07;13.13;;;5.00;99.90;;;;;;5033901;28;20236;-66
2022/12/02 12:36:55;;;;;;;16.57;13.53;;;5.00;99.90;;;;;;5051344;28;20182;-66
2022/12/02 12:39:21;;;;;;;14.37;11.57;;;4.90;99.90;;;;;;5050612;28;20175;-67
2022/12/02 12:41:46;;;;;;;19.47;13.03;;;4.90;99.90;;;;;;5050910;28;20228;-67
2022/12/02 12:44:12;;;;;;;21.13;12.93;;;4.90;99.90;;;;;;5049312;28;20199;-66
2022/12/02 12:46:38;;;;;;;24.23;15.83;;;4.90;99.90;;;;;;5051483;28;20225;-67
2022/12/02 12:49:04;;;;;;;14.67;12.73;;;5.00;99.90;;;;;;5051458;28;20496;-67